Brockport, PA (15823)

8:57 AM EDT on March 28, 2015 (GMT -0400)
Clear Run | | Change Station
CLOSE
Current Station
Personal Weather Station
Location: DuBois, PA
Elevation: 1677 ft
Nearby Weather Stations

Elev 1677 ft 41.15 °N, 78.76 °W | Updated 13 minutes ago

Overcast
Overcast
15.1 °F
Feels Like 15 °F
N
2.0
Wind Variable Wind from WNW
Gusts 6.0 mph

Today
High -- | Low -- °F
--% Chance of Precip.
Yesterday
High -- | Low -- °F
Precip. -- in
7:05 AM 7:35 PM
Waxing Gibbous, 62% visible
Pressure 30.05 in
Visibility 4.0 miles
Clouds Scattered Clouds 2200 ft
Mostly Cloudy 2700 ft
Overcast 6000 ft
Windchill 15 °F
Dew Point 10 °F
Humidity 80%
Rainfall 0.00 in
Snow Depth Not available.
UV 0 out of 12
Pollen 4.40 out of 12
Air Quality Not available.
Flu Activity Not available.
METAR KDUJ 281253Z AUTO 32009KT 4SM HZ SCT022 BKN027 OVC060 M09/M13 A2997 RMK AO2 SLP176 T10891133

More Conditions Fewer Conditions

Pressure 30.05 in
Visibility 4.0 miles
Clouds Scattered Clouds 2200 ft
Mostly Cloudy 2700 ft
Overcast 6000 ft
Windchill 15 °F
Dew Point 10 °F
Humidity 80%
Rainfall 0.00 in
Snow Depth Not available.
UV 0 out of 12
Pollen 4.40 out of 12
Air Quality Not available.
Flu Activity Not available.
METAR KDUJ 281253Z AUTO 32009KT 4SM HZ SCT022 BKN027 OVC060 M09/M13 A2997 RMK AO2 SLP176 T10891133

More Conditions Fewer Conditions

Nowcast | as of 5:59 am EDT on March 28, 2015

Patchy snow will be across the area through 10 am. Most of the snow will be north and west of a Tamaqua...Lebanon...York line. While accumulations will be on the light side...icy spots will be possible...as temperatures will be below freezing early this morning. Persons traveling this morning should be prepared for a wide range of conditions...and allow extra travel time.

×

10-Day Weather Forecast

Almanac

Astronomy

Mar. 28, 2015 Rise Set
Actual Time
Civil Twilight
Nautical Twilight
Astronomical Twilight
Moon
Length of Visible Light
Length of Day
Tomorrow will be .
, % of the Moon is Illuminated

Today's Extremes

State Highs State Lows

Community

WunderPhotos

Upload Photos

1,808,966 photos uploaded!

WunderBlogs® & News

Nearby

Air Quality

  Air Quality AQ Index Pollutant
Not available.

Snow Depth

Station Depth Elevation

Earthquake Activity

City Distance Mag. Time & Date
Minimum magnitude displayed is 2.5.

Coastal Water Temperatures

Place Temperature

Stations

Nearby Weather Stations

Station Location Temp. Windchill Dew Point Humidity Wind Precip. Elev Updated Type